Time;durP1;ratioP1;P1;durP2;ratioP2;P2;SDS_P1;SDS_P2;PMS_P1;PMS_P2;Temp;Humidity;BMP_temperature;BMP_pressure;BME280_temperature;BME280_humidity;BME280_pressure;Samples;Min_cycle;Max_cycle;Signal;HPM_P1;HPM_P2
2023/03/06 00:02:18;;;;;;;17.35;9.80;;;3.20;99.90;;;;;;6218469;23;20011;-86
2023/03/06 00:04:44;;;;;;;15.70;9.60;;;3.20;99.90;;;;;;6218520;23;20004;-86
2023/03/06 00:07:10;;;;;;;14.88;9.48;;;3.20;99.90;;;;;;6244926;23;20007;-86
2023/03/06 00:09:35;;;;;;;18.15;10.02;;;3.10;99.90;;;;;;6217685;23;20082;-86
2023/03/06 00:12:01;;;;;;;16.38;10.43;;;3.10;99.90;;;;;;6218607;23;20098;-86
2023/03/06 00:14:26;;;;;;;14.85;9.52;;;3.10;99.90;;;;;;6218686;23;20009;-86
2023/03/06 00:16:55;;;;;;;14.85;9.75;;;3.00;99.90;;;;;;6218595;23;20034;-86
2023/03/06 00:19:22;;;;;;;15.30;9.27;;;3.00;99.90;;;;;;6217773;23;20057;-86
2023/03/06 00:21:47;;;;;;;21.77;9.75;;;2.90;99.90;;;;;;6218623;23;20023;-86
2023/03/06 00:24:13;;;;;;;14.13;9.13;;;2.90;99.90;;;;;;6217712;23;20008;-85
2023/03/06 00:26:40;;;;;;;15.43;8.38;;;2.80;99.90;;;;;;6218403;23;20091;-86
2023/03/06 00:29:06;;;;;;;13.30;7.28;;;2.80;99.90;;;;;;6217839;23;20000;-86
2023/03/06 00:31:31;;;;;;;17.20;8.68;;;2.80;99.90;;;;;;6245310;23;20004;-86
2023/03/06 00:33:57;;;;;;;14.38;8.88;;;2.70;99.90;;;;;;6218602;23;20011;-86
2023/03/06 00:36:22;;;;;;;14.00;8.27;;;2.60;99.90;;;;;;6244879;23;20016;-86
2023/03/06 00:38:48;;;;;;;16.20;9.20;;;2.60;99.90;;;;;;6218287;23;20000;-86
2023/03/06 00:41:14;;;;;;;15.82;9.10;;;2.50;99.90;;;;;;6217574;23;20618;-86
2023/03/06 00:43:39;;;;;;;14.30;8.50;;;2.50;99.90;;;;;;6244020;23;20407;-86
2023/03/06 00:46:05;;;;;;;13.68;7.45;;;2.50;99.90;;;;;;6216547;23;20011;-86
2023/03/06 00:48:32;;;;;;;13.73;7.47;;;2.40;99.90;;;;;;6216869;23;20000;-86
2023/03/06 00:50:57;;;;;;;14.45;7.30;;;2.40;99.90;;;;;;6216173;23;20031;-87
2023/03/06 00:53:23;;;;;;;11.48;7.45;;;2.40;99.90;;;;;;6216896;23;19997;-86
2023/03/06 00:55:49;;;;;;;14.05;7.30;;;2.40;99.90;;;;;;6217538;23;20036;-87
2023/03/06 00:58:15;;;;;;;14.45;8.00;;;2.40;99.90;;;;;;6216009;23;20000;-86
2023/03/06 01:00:41;;;;;;;12.85;7.38;;;2.40;99.90;;;;;;6217198;23;20004;-86
2023/03/06 01:03:06;;;;;;;13.40;7.53;;;2.30;99.90;;;;;;6216296;23;20437;-86
2023/03/06 01:05:35;;;;;;;14.63;7.22;;;2.30;99.90;;;;;;6216712;23;20008;-86
2023/03/06 01:08:00;;;;;;;11.50;6.30;;;2.30;99.90;;;;;;6216115;23;20087;-86
2023/03/06 01:10:26;;;;;;;11.85;7.15;;;2.30;99.90;;;;;;6217105;23;20067;-86
2023/03/06 01:12:53;;;;;;;13.20;7.22;;;2.30;99.90;;;;;;6217383;23;20012;-86
2023/03/06 01:15:19;;;;;;;16.75;7.28;;;2.20;99.90;;;;;;6215991;23;20019;-86
2023/03/06 01:17:45;;;;;;;14.23;7.30;;;2.20;99.90;;;;;;6216620;23;20001;-86
2023/03/06 01:20:13;;;;;;;15.43;8.35;;;2.20;99.90;;;;;;6215888;23;20461;-87
2023/03/06 01:22:38;;;;;;;15.52;7.43;;;2.20;99.90;;;;;;6216851;23;20339;-86
2023/03/06 01:25:04;;;;;;;15.13;7.38;;;2.20;99.90;;;;;;6242603;23;20004;-86
2023/03/06 01:27:30;;;;;;;11.38;6.80;;;2.20;99.90;;;;;;6217870;23;20106;-86
2023/03/06 01:29:56;;;;;;;17.67;7.43;;;2.20;99.90;;;;;;6216687;23;20087;-87
2023/03/06 01:32:22;;;;;;;12.95;7.78;;;2.20;99.90;;;;;;6216345;23;20031;-87
2023/03/06 01:34:48;;;;;;;12.40;7.10;;;2.20;99.90;;;;;;6217302;23;20087;-86
2023/03/06 01:37:13;;;;;;;13.50;7.75;;;2.20;99.90;;;;;;6216989;23;20087;-86
2023/03/06 01:39:39;;;;;;;13.02;7.22;;;2.20;99.90;;;;;;6216323;23;20079;-87
2023/03/06 01:42:05;;;;;;;13.70;7.97;;;2.10;99.90;;;;;;6216682;23;20011;-87
2023/03/06 01:44:30;;;;;;;12.98;7.90;;;2.10;99.90;;;;;;6243378;23;19996;-86
2023/03/06 01:46:56;;;;;;;16.77;8.23;;;2.10;99.90;;;;;;6216766;22;20008;-86
2023/03/06 01:49:35;;;;;;;17.40;8.35;;;2.10;99.90;;;;;;6216228;23;20005;-86
2023/03/06 01:52:14;;;;;;;15.25;7.90;;;2.10;99.90;;;;;;6216416;23;20435;-86
2023/03/06 01:54:42;;;;;;;13.68;8.07;;;2.10;99.90;;;;;;6216564;23;20335;-86
2023/03/06 01:57:17;;;;;;;15.98;8.77;;;2.10;99.90;;;;;;6216392;23;20346;-86
2023/03/06 01:59:45;;;;;;;13.25;7.13;;;2.10;99.90;;;;;;6216400;23;20000;-86
2023/03/06 02:02:13;;;;;;;14.05;8.23;;;2.10;99.90;;;;;;6216765;23;20312;-86
2023/03/06 02:04:41;;;;;;;13.10;7.95;;;2.10;99.90;;;;;;6243575;23;20054;-86
2023/03/06 02:07:08;;;;;;;18.05;8.85;;;2.10;99.90;;;;;;6214085;23;20008;-87
2023/03/06 02:09:36;;;;;;;15.25;7.97;;;2.00;99.90;;;;;;6216055;23;20004;-86
2023/03/06 02:12:07;;;;;;;14.63;7.65;;;2.00;99.90;;;;;;6216695;23;20315;-87
2023/03/06 02:14:33;;;;;;;16.55;8.25;;;2.00;99.90;;;;;;6216842;23;20026;-86
2023/03/06 02:16:58;;;;;;;14.25;7.85;;;2.00;99.90;;;;;;6216639;23;20078;-87
2023/03/06 02:19:51;;;;;;;14.60;8.50;;;2.00;99.90;;;;;;6242721;23;20011;-87
2023/03/06 02:22:16;;;;;;;13.38;7.07;;;2.00;99.90;;;;;;6186561;23;20013;-86
2023/03/06 02:24:57;;;;;;;16.83;7.72;;;2.10;99.90;;;;;;6186375;23;20342;-87
2023/03/06 02:27:24;;;;;;;10.98;6.35;;;2.00;99.90;;;;;;6186116;23;20008;-86
2023/03/06 02:29:50;;;;;;;13.85;7.05;;;2.00;99.90;;;;;;6186180;23;19996;-86
2023/03/06 02:32:15;;;;;;;14.65;7.10;;;2.00;99.90;;;;;;6186062;23;20004;-87
2023/03/06 02:34:57;;;;;;;16.80;7.20;;;2.00;99.90;;;;;;6188340;23;20310;-86
2023/03/06 02:37:24;;;;;;;13.00;6.63;;;2.00;99.90;;;;;;6188143;23;20347;-86
2023/03/06 02:40:08;;;;;;;15.80;6.95;;;2.00;99.90;;;;;;6188270;23;20419;-86
2023/03/06 02:42:33;;;;;;;11.80;6.82;;;2.00;99.90;;;;;;6188016;23;19996;-86
2023/03/06 02:45:02;;;;;;;12.32;7.07;;;1.90;99.90;;;;;;6188768;23;20008;-86
2023/03/06 02:47:28;;;;;;;13.57;7.75;;;1.90;99.90;;;;;;6188194;23;20001;-86
2023/03/06 02:49:53;;;;;;;18.00;7.28;;;1.90;99.90;;;;;;6188315;23;20015;-87
2023/03/06 02:52:19;;;;;;;16.27;7.88;;;1.90;99.90;;;;;;6187532;23;20454;-86
2023/03/06 02:54:44;;;;;;;14.65;8.30;;;1.90;99.90;;;;;;6187918;23;20064;-86
2023/03/06 02:57:10;;;;;;;15.25;7.60;;;1.80;99.90;;;;;;6187470;23;20071;-86
2023/03/06 02:59:36;;;;;;;20.00;8.07;;;1.80;99.90;;;;;;6187330;23;20001;-86
2023/03/06 03:02:01;;;;;;;17.30;8.50;;;1.80;99.90;;;;;;6187999;23;20009;-86
2023/03/06 03:04:27;;;;;;;15.05;8.52;;;1.80;99.90;;;;;;6187842;23;20079;-86
2023/03/06 03:06:52;;;;;;;14.07;7.60;;;1.70;99.90;;;;;;6186979;23;20046;-87
2023/03/06 03:09:18;;;;;;;14.65;7.75;;;1.70;99.90;;;;;;6186609;23;20036;-86
2023/03/06 03:11:43;;;;;;;14.95;7.95;;;1.60;99.90;;;;;;6214664;23;20050;-87
2023/03/06 03:14:09;;;;;;;20.70;9.02;;;1.60;99.90;;;;;;6188257;23;20009;-86
2023/03/06 03:16:34;;;;;;;20.42;10.10;;;1.60;99.90;;;;;;6186742;23;20032;-86
2023/03/06 03:19:00;;;;;;;19.20;8.85;;;1.50;99.90;;;;;;6187601;23;20032;-86
2023/03/06 03:21:25;;;;;;;22.90;9.07;;;1.50;99.90;;;;;;6212945;23;20043;-86
2023/03/06 03:23:51;;;;;;;23.58;9.82;;;1.50;99.90;;;;;;6218191;23;20006;-86
2023/03/06 03:26:19;;;;;;;24.23;10.55;;;1.40;99.90;;;;;;6217718;23;20011;-86
2023/03/06 03:28:45;;;;;;;18.17;9.35;;;1.40;99.90;;;;;;6218248;23;20004;-87
2023/03/06 03:31:12;;;;;;;18.83;9.52;;;1.40;99.90;;;;;;6217115;23;20405;-86
2023/03/06 03:33:39;;;;;;;17.38;10.00;;;1.40;99.90;;;;;;6219001;23;20070;-86
2023/03/06 03:36:06;;;;;;;20.30;9.73;;;1.40;99.90;;;;;;6217253;23;20019;-86
2023/03/06 03:38:33;;;;;;;18.92;10.02;;;1.40;99.90;;;;;;6244755;23;20449;-87
2023/03/06 03:41:00;;;;;;;20.20;9.57;;;1.40;99.90;;;;;;6217304;23;20008;-87
2023/03/06 03:43:26;;;;;;;18.88;9.80;;;1.40;99.90;;;;;;6218112;23;20007;-86
2023/03/06 03:45:52;;;;;;;20.55;10.30;;;1.40;99.90;;;;;;6217763;23;20343;-86
2023/03/06 03:48:19;;;;;;;21.38;10.07;;;1.50;99.90;;;;;;6217003;23;20004;-86
2023/03/06 03:50:44;;;;;;;21.25;10.57;;;1.40;99.90;;;;;;6217741;23;20000;-86
2023/03/06 03:53:10;;;;;;;17.75;9.32;;;1.40;99.90;;;;;;6216763;23;20376;-87
2023/03/06 03:55:36;;;;;;;25.02;10.00;;;1.40;99.90;;;;;;6217329;23;20020;-86
2023/03/06 03:58:01;;;;;;;18.42;9.80;;;1.50;99.90;;;;;;6216964;23;20004;-86
2023/03/06 04:00:27;;;;;;;20.02;9.82;;;1.50;99.90;;;;;;6217728;23;20008;-86
2023/03/06 04:02:53;;;;;;;16.88;8.40;;;1.50;99.90;;;;;;6217808;23;20000;-86
2023/03/06 04:05:18;;;;;;;22.73;9.85;;;1.60;99.90;;;;;;6216926;23;20004;-86
2023/03/06 04:07:44;;;;;;;18.30;9.05;;;1.60;99.90;;;;;;6216878;23;20491;-86
2023/03/06 04:10:11;;;;;;;19.25;10.13;;;1.60;99.90;;;;;;6243375;23;20083;-86
2023/03/06 04:12:36;;;;;;;21.38;9.98;;;1.60;99.90;;;;;;6217326;23;20075;-86
2023/03/06 04:15:04;;;;;;;21.60;8.48;;;1.60;99.90;;;;;;6217807;23;20121;-86
2023/03/06 04:17:32;;;;;;;19.30;8.95;;;1.70;99.90;;;;;;6218953;23;20000;-86
2023/03/06 04:19:59;;;;;;;20.50;9.65;;;1.70;99.90;;;;;;6217450;23;20020;-86
2023/03/06 04:22:24;;;;;;;19.65;9.95;;;1.70;99.90;;;;;;6217896;23;20434;-87
2023/03/06 04:24:50;;;;;;;20.38;9.80;;;1.70;99.90;;;;;;6216564;23;20000;-87
2023/03/06 04:27:15;;;;;;;18.92;9.82;;;1.80;99.90;;;;;;6216033;23;20039;-86
2023/03/06 04:29:41;;;;;;;18.80;9.32;;;1.80;99.90;;;;;;6244199;23;20485;-85
2023/03/06 04:32:06;;;;;;;21.00;10.07;;;1.80;99.90;;;;;;6217366;23;20035;-86
2023/03/06 04:34:32;;;;;;;21.85;9.40;;;1.80;99.90;;;;;;6218324;23;20015;-86
2023/03/06 04:36:57;;;;;;;19.48;8.52;;;1.90;99.90;;;;;;6217474;23;20015;-87
2023/03/06 04:39:23;;;;;;;18.98;9.35;;;1.90;99.90;;;;;;6243553;23;20004;-87
2023/03/06 04:41:48;;;;;;;14.85;7.68;;;1.90;99.90;;;;;;6217216;23;20008;-86
2023/03/06 04:44:14;;;;;;;19.70;9.50;;;1.90;99.90;;;;;;6242906;23;20068;-87
2023/03/06 04:46:39;;;;;;;18.13;8.40;;;2.00;99.90;;;;;;6242825;23;20330;-86
2023/03/06 04:49:06;;;;;;;17.90;8.38;;;2.00;99.90;;;;;;6216408;23;20035;-87
2023/03/06 04:51:31;;;;;;;19.00;7.95;;;2.00;99.90;;;;;;6215641;23;20186;-85
2023/03/06 04:53:57;;;;;;;15.88;7.95;;;2.00;99.90;;;;;;6216426;23;20440;-85
2023/03/06 04:56:23;;;;;;;18.05;8.88;;;2.10;99.90;;;;;;6216092;23;20055;-85
2023/03/06 04:58:49;;;;;;;19.80;8.90;;;2.10;99.90;;;;;;6217051;23;20493;-85
2023/03/06 05:01:14;;;;;;;14.35;6.90;;;2.10;99.90;;;;;;6217075;23;20446;-85
2023/03/06 05:03:40;;;;;;;20.23;8.30;;;2.20;99.90;;;;;;6217546;23;20011;-86
2023/03/06 05:06:05;;;;;;;16.73;8.02;;;2.20;99.90;;;;;;6216909;23;20019;-85
2023/03/06 05:08:31;;;;;;;17.98;7.88;;;2.20;99.90;;;;;;6215831;23;20521;-85
2023/03/06 05:10:59;;;;;;;17.75;8.70;;;2.20;99.90;;;;;;6216610;23;20011;-85
2023/03/06 05:13:26;;;;;;;17.60;8.73;;;2.20;99.90;;;;;;6216848;23;20023;-87
2023/03/06 05:15:51;;;;;;;15.77;7.25;;;2.30;99.90;;;;;;6217017;23;20023;-86
2023/03/06 05:18:18;;;;;;;19.30;7.28;;;2.30;99.90;;;;;;6216765;22;20091;-86
2023/03/06 05:20:44;;;;;;;16.38;7.88;;;2.20;99.90;;;;;;6216320;23;20027;-86
2023/03/06 05:23:10;;;;;;;17.23;6.60;;;2.30;99.90;;;;;;6216400;23;20345;-86
2023/03/06 05:25:38;;;;;;;17.90;6.78;;;2.30;99.90;;;;;;6216789;23;20016;-86
2023/03/06 05:28:04;;;;;;;15.48;7.78;;;2.30;99.90;;;;;;6216291;23;20007;-85
2023/03/06 05:30:30;;;;;;;16.45;8.15;;;2.30;99.90;;;;;;6216791;23;20343;-86
2023/03/06 05:32:55;;;;;;;15.13;7.88;;;2.30;99.90;;;;;;6216618;23;20099;-86
2023/03/06 05:35:22;;;;;;;14.88;6.78;;;2.30;99.90;;;;;;6216570;23;20514;-86
2023/03/06 05:37:47;;;;;;;18.63;8.05;;;2.30;99.90;;;;;;6216563;23;20423;-86
2023/03/06 05:40:14;;;;;;;17.85;7.80;;;2.30;99.90;;;;;;6216602;23;20015;-86
2023/03/06 05:42:40;;;;;;;14.63;6.72;;;2.30;99.90;;;;;;6216741;23;20423;-86
2023/03/06 05:45:06;;;;;;;14.98;7.13;;;2.40;99.90;;;;;;6215737;23;20007;-86
2023/03/06 05:47:32;;;;;;;16.10;7.15;;;2.40;99.90;;;;;;6243749;23;20454;-86
2023/03/06 05:49:57;;;;;;;16.60;7.95;;;2.40;99.90;;;;;;6216279;23;20069;-86
2023/03/06 05:52:23;;;;;;;15.02;7.95;;;2.40;99.90;;;;;;6216298;23;20008;-86
2023/03/06 05:54:50;;;;;;;18.20;7.72;;;2.40;99.90;;;;;;6216735;23;20004;-86
2023/03/06 05:57:18;;;;;;;18.13;7.82;;;2.40;99.90;;;;;;6216426;23;20008;-86
2023/03/06 05:59:44;;;;;;;20.83;8.60;;;2.40;99.90;;;;;;6243722;23;20000;-86
2023/03/06 06:02:09;;;;;;;22.10;8.02;;;2.40;99.90;;;;;;6216635;23;20015;-87
2023/03/06 06:04:35;;;;;;;18.95;8.55;;;2.30;99.90;;;;;;6216516;23;19996;-86
2023/03/06 06:07:00;;;;;;;19.35;8.23;;;2.40;99.90;;;;;;6217489;23;20011;-86
2023/03/06 06:09:27;;;;;;;16.35;7.40;;;2.40;99.90;;;;;;6219105;23;20012;-87
2023/03/06 06:11:55;;;;;;;18.20;8.43;;;2.40;99.90;;;;;;6216720;23;20016;-85
2023/03/06 06:14:21;;;;;;;17.35;7.38;;;2.40;99.90;;;;;;6216951;22;20042;-86
2023/03/06 06:16:46;;;;;;;22.52;8.82;;;2.40;99.90;;;;;;6218696;23;20016;-86
2023/03/06 06:19:17;;;;;;;20.90;9.50;;;2.40;99.90;;;;;;6219139;23;20393;-86
2023/03/06 06:21:44;;;;;;;19.52;9.55;;;2.40;99.90;;;;;;6219592;23;20052;-86
2023/03/06 06:24:09;;;;;;;21.95;9.35;;;2.40;99.90;;;;;;6219463;23;20351;-85
2023/03/06 06:26:35;;;;;;;20.10;8.68;;;2.40;99.90;;;;;;6220361;23;20035;-86
2023/03/06 06:29:03;;;;;;;19.55;8.93;;;2.50;99.90;;;;;;6219631;23;20000;-85
2023/03/06 06:31:28;;;;;;;19.13;8.40;;;2.50;99.90;;;;;;6219835;23;20000;-86
2023/03/06 06:33:54;;;;;;;21.02;9.23;;;2.50;99.90;;;;;;6220327;23;20129;-85
2023/03/06 06:36:20;;;;;;;23.08;9.30;;;2.50;99.90;;;;;;6217530;23;20012;-86
2023/03/06 06:38:46;;;;;;;25.33;9.55;;;2.50;99.90;;;;;;6218039;23;20050;-85
2023/03/06 06:41:11;;;;;;;18.23;8.57;;;2.50;99.90;;;;;;6217916;23;20008;-85
2023/03/06 06:43:37;;;;;;;20.50;9.75;;;2.50;99.90;;;;;;6219067;23;20375;-85
2023/03/06 06:46:03;;;;;;;21.42;8.50;;;2.50;99.90;;;;;;6215043;22;20031;-86
2023/03/06 06:48:29;;;;;;;23.42;10.25;;;2.50;99.90;;;;;;6220363;23;20000;-85
2023/03/06 06:50:56;;;;;;;23.30;9.75;;;2.50;99.90;;;;;;6220232;23;20004;-86
2023/03/06 06:53:22;;;;;;;24.17;10.00;;;2.60;99.90;;;;;;6219977;23;20339;-85
2023/03/06 06:55:47;;;;;;;19.63;9.70;;;2.60;99.90;;;;;;6219844;23;20022;-85
2023/03/06 06:58:13;;;;;;;19.67;9.23;;;2.60;99.90;;;;;;6220214;23;20005;-86
2023/03/06 07:00:39;;;;;;;20.45;9.02;;;2.60;99.90;;;;;;6245789;23;20008;-84
2023/03/06 07:03:05;;;;;;;21.50;10.27;;;2.60;99.90;;;;;;6217663;23;20338;-86
2023/03/06 07:05:30;;;;;;;25.17;9.98;;;2.70;99.90;;;;;;6246233;23;20029;-85
2023/03/06 07:07:56;;;;;;;23.90;8.73;;;2.80;99.90;;;;;;6244071;23;20490;-86
2023/03/06 07:10:22;;;;;;;21.10;10.15;;;2.80;99.90;;;;;;6217693;23;20046;-86
2023/03/06 07:12:47;;;;;;;22.05;9.85;;;2.90;99.90;;;;;;6220164;23;20031;-86
2023/03/06 07:15:16;;;;;;;21.45;9.75;;;2.90;99.90;;;;;;6220442;23;20070;-86
2023/03/06 07:17:41;;;;;;;24.25;9.52;;;2.90;99.90;;;;;;6220761;23;20386;-86
2023/03/06 07:20:09;;;;;;;23.42;10.60;;;3.00;99.90;;;;;;6246796;23;20087;-86
2023/03/06 07:22:35;;;;;;;17.98;9.85;;;3.00;99.90;;;;;;6220230;23;20007;-86
2023/03/06 07:25:02;;;;;;;19.00;9.15;;;3.00;99.90;;;;;;6219274;23;20015;-85
2023/03/06 07:27:27;;;;;;;16.08;8.98;;;3.00;99.90;;;;;;6218485;23;20391;-86
2023/03/06 07:29:53;;;;;;;15.32;7.40;;;3.10;99.90;;;;;;6218556;23;20028;-86
2023/03/06 07:32:19;;;;;;;17.23;8.93;;;3.10;99.90;;;;;;6217487;23;19996;-85
2023/03/06 07:34:45;;;;;;;18.77;9.65;;;3.20;99.90;;;;;;6218129;23;20067;-86
2023/03/06 07:37:11;;;;;;;19.55;9.52;;;3.20;99.90;;;;;;6217882;23;20043;-86
2023/03/06 07:39:36;;;;;;;20.80;9.15;;;3.20;99.90;;;;;;6245478;23;20410;-86
2023/03/06 07:42:02;;;;;;;21.25;10.15;;;3.30;99.90;;;;;;6217528;23;20316;-86
2023/03/06 07:44:28;;;;;;;16.92;9.13;;;3.30;99.90;;;;;;6219046;23;20027;-87
2023/03/06 07:46:54;;;;;;;14.63;7.90;;;3.30;99.90;;;;;;6218095;23;20000;-86
2023/03/06 07:49:19;;;;;;;13.63;7.55;;;3.30;99.90;;;;;;6217134;23;20007;-85
2023/03/06 07:51:45;;;;;;;16.27;8.65;;;3.40;99.90;;;;;;6244739;23;20000;-86
2023/03/06 07:54:11;;;;;;;15.02;7.90;;;3.40;99.90;;;;;;6217934;23;20004;-85
2023/03/06 07:56:36;;;;;;;17.10;8.70;;;3.40;99.90;;;;;;6217695;23;20012;-85
2023/03/06 07:59:02;;;;;;;15.40;7.85;;;3.50;99.90;;;;;;6219796;23;20422;-85
2023/03/06 08:01:28;;;;;;;16.52;8.05;;;3.50;99.90;;;;;;6220315;23;20004;-86
2023/03/06 08:03:54;;;;;;;15.77;6.55;;;3.60;99.90;;;;;;6219124;23;20051;-85
2023/03/06 08:06:25;;;;;;;16.60;8.05;;;3.60;99.90;;;;;;6220404;23;20008;-86
2023/03/06 08:08:52;;;;;;;13.52;7.40;;;3.60;99.90;;;;;;6219564;23;20000;-85
2023/03/06 08:11:20;;;;;;;10.25;6.50;;;3.70;99.90;;;;;;6245772;22;20007;-86
2023/03/06 08:13:47;;;;;;;9.15;6.15;;;3.70;99.90;;;;;;6218559;23;20067;-85
2023/03/06 08:16:14;;;;;;;10.85;6.30;;;3.70;99.90;;;;;;6218548;23;20016;-86
2023/03/06 08:18:40;;;;;;;13.27;6.55;;;3.80;99.90;;;;;;6219681;23;20000;-86
2023/03/06 08:21:10;;;;;;;12.70;6.53;;;3.80;99.90;;;;;;6219390;23;20024;-85
2023/03/06 08:23:36;;;;;;;10.18;6.18;;;4.00;99.90;;;;;;6220816;23;20000;-85
2023/03/06 08:26:09;;;;;;;9.10;5.68;;;4.00;99.90;;;;;;6219484;23;20012;-86
2023/03/06 08:28:35;;;;;;;;;;;4.00;99.90;;;;;;6219220;23;20426;-86
2023/03/06 08:31:11;;;;;;;9.65;4.63;;;4.00;99.90;;;;;;6246606;23;19950;-86
2023/03/06 08:33:37;;;;;;;6.30;4.15;;;4.00;99.90;;;;;;6219231;23;20017;-86
2023/03/06 08:36:03;;;;;;;5.78;4.38;;;4.10;99.90;;;;;;6218773;23;20042;-85
2023/03/06 08:38:29;;;;;;;7.60;4.05;;;4.10;99.90;;;;;;6219384;23;20000;-85
2023/03/06 08:40:55;;;;;;;7.43;3.80;;;4.20;99.90;;;;;;6221024;23;20015;-86
2023/03/06 08:43:20;;;;;;;3.85;2.75;;;4.20;99.90;;;;;;6245835;23;20007;-85
2023/03/06 08:45:52;;;;;;;4.88;2.92;;;4.20;99.90;;;;;;6219364;23;20315;-86
2023/03/06 08:48:17;;;;;;;5.20;3.28;;;4.20;99.90;;;;;;6219340;23;20411;-86
2023/03/06 08:50:43;;;;;;;4.28;2.53;;;4.30;99.90;;;;;;6218528;23;20000;-86
2023/03/06 08:53:08;;;;;;;3.50;2.67;;;4.30;99.90;;;;;;6218126;23;20382;-86
2023/03/06 08:55:36;;;;;;;4.43;2.42;;;4.30;99.90;;;;;;6215996;23;20434;-85
2023/03/06 08:58:03;;;;;;;4.00;1.90;;;4.30;99.90;;;;;;6216420;23;20090;-85
2023/03/06 09:00:29;;;;;;;4.00;1.38;;;4.30;99.90;;;;;;6216984;23;20015;-85
2023/03/06 09:02:54;;;;;;;5.25;2.28;;;4.30;99.90;;;;;;6243292;23;20094;-86
2023/03/06 09:05:20;;;;;;;2.70;1.33;;;4.40;99.90;;;;;;6239119;23;20461;-85
2023/03/06 09:07:45;;;;;;;2.85;1.40;;;4.50;99.90;;;;;;6217970;23;20439;-86
2023/03/06 09:10:17;;;;;;;1.77;1.00;;;4.60;99.90;;;;;;6243278;23;19996;-86
2023/03/06 09:12:42;;;;;;;2.58;1.52;;;4.60;99.90;;;;;;6218173;23;20004;-86
2023/03/06 09:15:08;;;;;;;3.92;1.65;;;4.60;99.90;;;;;;6217235;23;20049;-86
2023/03/06 09:17:34;;;;;;;1.95;1.00;;;4.70;99.90;;;;;;6217413;23;20007;-86
2023/03/06 09:20:00;;;;;;;2.92;0.90;;;4.70;99.90;;;;;;6209505;23;20016;-86
2023/03/06 09:22:25;;;;;;;2.20;0.90;;;4.70;99.90;;;;;;6184507;23;20058;-85
2023/03/06 09:24:51;;;;;;;3.78;1.17;;;4.70;99.90;;;;;;6188467;23;20335;-86
2023/03/06 09:27:17;;;;;;;2.50;1.00;;;4.60;99.90;;;;;;6187223;23;20005;-86
2023/03/06 09:29:42;;;;;;;3.20;0.95;;;4.70;99.90;;;;;;6186580;23;20339;-86
2023/03/06 09:32:08;;;;;;;2.97;1.23;;;4.80;99.90;;;;;;6188184;23;20079;-86
2023/03/06 09:34:34;;;;;;;5.50;0.98;;;4.80;99.90;;;;;;6188264;23;20098;-85
2023/03/06 09:37:01;;;;;;;2.60;1.08;;;4.90;99.90;;;;;;6188046;23;20017;-86
2023/03/06 09:39:27;;;;;;;2.33;0.93;;;4.90;99.90;;;;;;6186728;23;20440;-85
2023/03/06 09:41:53;;;;;;;2.58;0.90;;;5.00;99.90;;;;;;6185107;23;20005;-86
2023/03/06 09:44:26;;;;;;;2.97;1.15;;;5.20;99.90;;;;;;6185197;23;20001;-86
2023/03/06 09:47:22;;;;;;;1.80;0.90;;;5.30;99.90;;;;;;6186273;23;20005;-85
2023/03/06 09:50:03;;;;;;;3.85;0.88;;;5.40;99.90;;;;;;6186102;23;20004;-85
2023/03/06 09:52:32;;;;;;;2.00;1.10;;;5.40;99.90;;;;;;6187187;23;20063;-85
2023/03/06 09:55:08;;;;;;;1.50;0.80;;;5.40;99.90;;;;;;6186256;23;20001;-84
2023/03/06 09:57:52;;;;;;;2.67;0.70;;;5.40;99.90;;;;;;6186068;23;20450;-85
2023/03/06 10:00:28;;;;;;;3.53;0.80;;;5.50;99.90;;;;;;6187000;23;20001;-85
2023/03/06 10:03:20;;;;;;;2.72;0.75;;;5.50;99.90;;;;;;6186861;23;20012;-85
2023/03/06 10:05:48;;;;;;;;;;;5.60;99.90;;;;;;6190160;23;19997;-85
2023/03/06 10:08:29;;;;;;;1.48;0.50;;;5.60;99.90;;;;;;6188675;23;19899;-85
2023/03/06 10:11:20;;;;;;;4.32;0.70;;;5.70;99.90;;;;;;6188183;23;20008;-85
2023/03/06 10:13:56;;;;;;;1.92;0.70;;;5.80;99.90;;;;;;6168526;23;20007;-85
2023/03/06 10:16:26;;;;;;;1.20;0.50;;;5.90;99.90;;;;;;6187560;23;20042;-85
2023/03/06 10:19:05;;;;;;;1.80;0.45;;;6.10;99.90;;;;;;6187144;23;20005;-86
2023/03/06 10:22:11;;;;;;;1.48;0.30;;;6.10;99.90;;;;;;6215381;23;20020;-85
2023/03/06 10:24:59;;;;;;;1.02;0.30;;;6.30;99.90;;;;;;6246030;23;20004;-85
2023/03/06 10:27:41;;;;;;;1.27;0.38;;;6.30;99.90;;;;;;6217767;23;20014;-85
2023/03/06 10:30:40;;;;;;;2.28;0.30;;;6.20;99.90;;;;;;6244555;22;20064;-85
2023/03/06 10:33:40;;;;;;;1.25;0.30;;;6.20;99.90;;;;;;6217427;23;20008;-85
2023/03/06 10:36:13;;;;;;;1.15;0.30;;;6.20;99.90;;;;;;6160999;23;20406;-85
2023/03/06 10:38:40;;;;;;;;;;;6.30;99.90;;;;;;6245062;22;20083;-85
2023/03/06 10:41:26;;;;;;;1.23;0.30;;;6.30;99.90;;;;;;6242312;22;19900;-85
2023/03/06 10:44:03;;;;;;;1.38;0.32;;;6.40;99.90;;;;;;6245720;23;20000;-85
2023/03/06 10:46:32;;;;;;;1.20;0.30;;;6.40;99.90;;;;;;6218885;23;20011;-85
2023/03/06 10:49:00;;;;;;;1.08;0.30;;;6.40;99.90;;;;;;6245616;23;20483;-85
2023/03/06 10:51:27;;;;;;;1.17;0.40;;;6.40;99.90;;;;;;6218032;22;20005;-86
2023/03/06 10:54:12;;;;;;;0.52;0.30;;;6.40;99.90;;;;;;6218823;22;20004;-85
2023/03/06 10:56:40;;;;;;;1.42;0.40;;;6.40;99.90;;;;;;6220166;23;20022;-85
2023/03/06 10:59:12;;;;;;;3.13;0.30;;;6.40;99.90;;;;;;6220042;23;20083;-85
2023/03/06 11:01:40;;;;;;;2.25;0.30;;;6.30;99.90;;;;;;6220199;23;20087;-86
2023/03/06 11:04:25;;;;;;;1.40;0.30;;;6.30;99.90;;;;;;6216457;22;20008;-86
2023/03/06 11:07:13;;;;;;;2.70;0.30;;;6.30;99.90;;;;;;6218161;23;20014;-86
2023/03/06 11:09:40;;;;;;;1.55;0.35;;;6.30;99.90;;;;;;6219237;23;20004;-86
2023/03/06 11:12:38;;;;;;;2.30;0.30;;;6.30;99.90;;;;;;6218415;23;20062;-85
2023/03/06 11:15:13;;;;;;;0.80;0.30;;;6.40;99.90;;;;;;6218881;23;20034;-85
2023/03/06 11:18:01;;;;;;;0.80;0.40;;;6.40;99.90;;;;;;6219341;23;20011;-85
2023/03/06 11:20:32;;;;;;;1.02;0.30;;;6.50;99.90;;;;;;6218448;23;20438;-85
2023/03/06 11:23:07;;;;;;;1.88;0.38;;;6.60;99.90;;;;;;6219344;23;20385;-85
2023/03/06 11:25:39;;;;;;;0.50;0.20;;;6.70;99.90;;;;;;6218795;23;20031;-85
2023/03/06 11:28:22;;;;;;;1.00;0.38;;;6.70;99.90;;;;;;6217907;23;20442;-85
2023/03/06 11:31:01;;;;;;;2.95;0.30;;;6.80;99.90;;;;;;6217950;23;20126;-85
2023/03/06 11:33:48;;;;;;;1.25;0.30;;;6.90;99.90;;;;;;6218142;23;20407;-85
2023/03/06 11:36:36;;;;;;;1.42;0.30;;;7.00;99.90;;;;;;6216560;23;20460;-86
2023/03/06 11:39:17;;;;;;;1.23;0.40;;;7.20;99.90;;;;;;6218670;23;20000;-86
2023/03/06 11:42:11;;;;;;;1.00;0.30;;;7.30;99.90;;;;;;6220444;23;20014;-86
2023/03/06 11:45:01;;;;;;;0.93;0.30;;;7.40;99.90;;;;;;6219271;23;20005;-86
2023/03/06 11:47:45;;;;;;;1.67;0.40;;;7.40;99.90;;;;;;6247241;22;20423;-85
2023/03/06 11:50:32;;;;;;;1.40;0.60;;;7.40;99.90;;;;;;6219880;23;20004;-86
2023/03/06 11:53:04;;;;;;;2.05;0.52;;;7.50;99.90;;;;;;6220342;23;20086;-86
2023/03/06 11:56:02;;;;;;;1.52;0.63;;;7.70;99.90;;;;;;6220224;23;20022;-86
2023/03/06 11:58:34;;;;;;;1.88;0.60;;;8.00;99.90;;;;;;6217696;23;19996;-86
2023/03/06 12:01:15;;;;;;;1.77;0.60;;;8.30;99.90;;;;;;6218459;23;20366;-86
2023/03/06 12:04:01;;;;;;;2.05;0.50;;;8.30;99.90;;;;;;6214378;23;20028;-86
2023/03/06 12:07:05;;;;;;;1.17;0.50;;;8.30;99.90;;;;;;6215250;23;20381;-86
2023/03/06 12:09:53;;;;;;;2.20;0.52;;;8.20;99.90;;;;;;6181228;23;20010;-85
2023/03/06 12:12:46;;;;;;;2.85;0.50;;;8.20;99.90;;;;;;6217343;23;20009;-85
2023/03/06 12:15:18;;;;;;;2.47;0.80;;;8.40;99.90;;;;;;6243650;23;20008;-86
2023/03/06 12:17:46;;;;;;;5.30;0.87;;;8.50;99.90;;;;;;6242250;23;20004;-86
2023/03/06 12:20:20;;;;;;;1.80;0.60;;;8.60;99.90;;;;;;6240984;23;20115;-86
2023/03/06 12:22:51;;;;;;;2.45;0.77;;;8.70;99.90;;;;;;6243850;23;20058;-86
2023/03/06 12:25:40;;;;;;;3.33;0.90;;;8.60;99.90;;;;;;6215480;23;20004;-86
2023/03/06 12:28:27;;;;;;;1.80;0.70;;;8.60;99.90;;;;;;6216988;23;20087;-86
2023/03/06 12:31:11;;;;;;;1.63;0.65;;;8.60;99.90;;;;;;6217982;23;20008;-86
2023/03/06 12:33:55;;;;;;;1.73;0.40;;;8.60;99.90;;;;;;6244060;23;20071;-86
2023/03/06 12:36:48;;;;;;;1.83;0.60;;;8.50;99.90;;;;;;6245185;23;20510;-85
2023/03/06 12:39:24;;;;;;;2.40;0.73;;;8.50;99.90;;;;;;6218063;23;20439;-86
2023/03/06 12:42:20;;;;;;;2.60;0.70;;;8.50;99.90;;;;;;6218676;23;20385;-86
2023/03/06 12:44:58;;;;;;;2.45;0.80;;;8.40;99.90;;;;;;6244792;23;20000;-86
2023/03/06 12:47:26;;;;;;;2.85;1.00;;;8.30;99.90;;;;;;6218549;23;20004;-86
2023/03/06 12:50:03;;;;;;;2.72;1.30;;;8.30;99.90;;;;;;6220629;23;20015;-91
2023/03/06 12:52:31;;;;;;;3.40;1.23;;;8.30;99.90;;;;;;6221287;23;20000;-85
2023/03/06 12:55:06;;;;;;;2.83;1.40;;;8.40;99.90;;;;;;6220038;23;20155;-85
2023/03/06 12:57:32;;;;;;;3.80;1.90;;;8.50;99.90;;;;;;6220493;23;20012;-85
2023/03/06 12:59:57;;;;;;;3.72;1.30;;;8.50;99.90;;;;;;6220266;23;20020;-85
2023/03/06 13:03:05;;;;;;;3.67;1.45;;;8.30;99.90;;;;;;6245936;23;20004;-85
2023/03/06 13:05:43;;;;;;;4.15;2.00;;;8.10;99.90;;;;;;6219780;23;20120;-85